Time;durP1;ratioP1;P1;durP2;ratioP2;P2;SDS_P1;SDS_P2;PMS_P1;PMS_P2;Temp;Humidity;BMP_temperature;BMP_pressure;BME280_temperature;BME280_humidity;BME280_pressure;Samples;Min_cycle;Max_cycle;Signal;HPM_P1;HPM_P2
2023/03/29 00:01:55;;;;;;;7.55;3.78;;;5.80;99.90;;;;;;4980687;28;20136;-78
2023/03/29 00:04:22;;;;;;;8.40;3.65;;;5.70;99.90;;;;;;4997792;28;20053;-78
2023/03/29 00:06:49;;;;;;;8.50;3.65;;;5.70;99.90;;;;;;4988342;28;20042;-78
2023/03/29 00:09:25;;;;;;;6.93;3.70;;;5.80;99.90;;;;;;4991584;28;20121;-77
2023/03/29 00:12:10;;;;;;;7.90;3.78;;;5.70;99.90;;;;;;4988480;28;20431;-77
2023/03/29 00:14:39;;;;;;;7.00;3.38;;;5.70;99.90;;;;;;4993580;28;20053;-77
2023/03/29 00:17:05;;;;;;;6.68;3.78;;;5.70;99.90;;;;;;4997406;28;20039;-77
2023/03/29 00:19:34;;;;;;;7.45;3.58;;;5.70;99.90;;;;;;5012142;28;20125;-77
2023/03/29 00:22:02;;;;;;;8.38;3.80;;;5.60;99.90;;;;;;4997299;28;20037;-77
2023/03/29 00:24:35;;;;;;;7.88;3.88;;;5.60;99.90;;;;;;4997028;28;20374;-77
2023/03/29 00:27:09;;;;;;;6.15;3.50;;;5.60;99.90;;;;;;4996854;28;20078;-78
2023/03/29 00:29:38;;;;;;;7.53;3.90;;;5.70;99.90;;;;;;4979874;28;20049;-78
2023/03/29 00:32:12;;;;;;;8.73;4.05;;;5.60;99.90;;;;;;4981557;28;20034;-78
2023/03/29 00:34:41;;;;;;;6.88;4.05;;;5.70;99.90;;;;;;4970720;28;20402;-78
2023/03/29 00:37:21;;;;;;;8.27;4.10;;;5.60;99.90;;;;;;4982127;28;20469;-77
2023/03/29 00:39:56;;;;;;;7.03;4.17;;;5.60;99.90;;;;;;4981415;28;20513;-78
2023/03/29 00:42:23;;;;;;;8.35;4.38;;;5.60;99.90;;;;;;4996537;28;20045;-77
2023/03/29 00:45:29;;;;;;;8.35;4.22;;;5.60;99.90;;;;;;4996013;28;20133;-78
2023/03/29 00:48:07;;;;;;;9.05;4.00;;;5.60;99.90;;;;;;4990215;28;20077;-78
2023/03/29 00:50:49;;;;;;;8.85;4.13;;;5.50;99.90;;;;;;4998398;28;20649;-77
2023/03/29 00:53:34;;;;;;;8.27;4.28;;;5.60;99.90;;;;;;4983112;28;20046;-78
2023/03/29 00:56:42;;;;;;;7.65;3.97;;;5.60;99.90;;;;;;5013354;28;20073;-78
2023/03/29 00:59:16;;;;;;;8.00;4.20;;;5.60;99.90;;;;;;4925334;29;20191;-78
2023/03/29 01:01:53;;;;;;;7.00;4.28;;;5.60;99.90;;;;;;4952341;28;20110;-77
2023/03/29 01:04:55;;;;;;;7.82;4.22;;;5.60;99.90;;;;;;4949630;28;20045;-77
2023/03/29 01:07:56;;;;;;;8.15;4.20;;;5.60;99.90;;;;;;4999452;28;20397;-78
2023/03/29 01:10:40;;;;;;;8.30;4.00;;;5.60;99.90;;;;;;5007833;28;20038;-77
2023/03/29 01:13:10;;;;;;;9.35;4.32;;;5.60;99.90;;;;;;5032325;28;20203;-77
2023/03/29 01:15:53;;;;;;;8.15;4.72;;;5.60;99.90;;;;;;5034372;28;20464;-78
2023/03/29 01:18:21;;;;;;;9.23;4.40;;;5.60;99.90;;;;;;5000996;28;20040;-77
2023/03/29 01:21:20;;;;;;;9.00;4.70;;;5.60;99.90;;;;;;5006251;28;20053;-76
2023/03/29 01:24:10;;;;;;;8.20;4.38;;;5.60;99.90;;;;;;5003993;28;20046;-76
2023/03/29 01:27:01;;;;;;;7.78;4.30;;;5.60;99.90;;;;;;4998865;28;20038;-77
2023/03/29 01:29:59;;;;;;;8.13;4.32;;;5.60;99.90;;;;;;5005190;28;20077;-76
2023/03/29 01:32:50;;;;;;;8.18;4.50;;;5.60;99.90;;;;;;4972498;28;20034;-78
2023/03/29 01:36:07;;;;;;;9.23;5.00;;;5.60;99.90;;;;;;4997929;28;20069;-78
2023/03/29 01:38:58;;;;;;;9.75;4.80;;;5.60;99.90;;;;;;5030018;28;20046;-77
2023/03/29 01:41:35;;;;;;;10.48;5.28;;;5.60;99.90;;;;;;4999674;28;20400;-78
2023/03/29 01:44:11;;;;;;;9.40;4.95;;;5.60;99.90;;;;;;4982966;28;20038;-78
2023/03/29 01:46:51;;;;;;;9.88;5.30;;;5.60;99.90;;;;;;5014694;28;20064;-78
2023/03/29 01:49:57;;;;;;;10.77;5.45;;;5.60;99.90;;;;;;5031653;28;20041;-78
2023/03/29 01:52:41;;;;;;;8.70;5.13;;;5.60;99.90;;;;;;5015815;28;20045;-77
2023/03/29 01:55:33;;;;;;;11.23;5.75;;;5.60;99.90;;;;;;5013102;28;20050;-78
2023/03/29 01:58:01;;;;;;;9.70;5.72;;;5.60;99.90;;;;;;4970490;28;20054;-77
2023/03/29 02:00:42;;;;;;;9.98;5.55;;;5.60;99.90;;;;;;4990438;28;20093;-78
2023/03/29 02:03:09;;;;;;;11.68;6.80;;;5.60;99.90;;;;;;4975255;28;20410;-82
2023/03/29 02:05:41;;;;;;;10.43;6.28;;;5.60;99.90;;;;;;4980002;28;20118;-81
2023/03/29 02:08:11;;;;;;;11.15;6.43;;;5.60;99.90;;;;;;4979528;28;20406;-82
2023/03/29 02:10:38;;;;;;;11.95;6.93;;;5.60;99.90;;;;;;4979576;28;20043;-82
2023/03/29 02:13:08;;;;;;;12.45;7.50;;;5.60;99.90;;;;;;4975926;28;20383;-81
2023/03/29 02:15:34;;;;;;;12.55;7.03;;;5.60;99.90;;;;;;4942080;28;20042;-82
2023/03/29 02:18:07;;;;;;;11.65;7.70;;;5.60;99.90;;;;;;4992428;28;20035;-82
2023/03/29 02:20:48;;;;;;;12.85;8.05;;;5.60;99.90;;;;;;4960451;28;20046;-81
2023/03/29 02:23:26;;;;;;;11.85;7.80;;;5.60;99.90;;;;;;4959513;28;20050;-82
2023/03/29 02:25:59;;;;;;;12.13;7.60;;;5.60;99.90;;;;;;4956235;28;20053;-82
2023/03/29 02:28:28;;;;;;;13.43;9.27;;;5.60;99.90;;;;;;4978678;28;20109;-82
2023/03/29 02:31:10;;;;;;;14.32;9.10;;;5.60;99.90;;;;;;4962495;28;20043;-81
2023/03/29 02:34:14;;;;;;;15.18;9.52;;;5.60;99.90;;;;;;4962813;28;20053;-82
2023/03/29 02:36:46;;;;;;;15.35;9.45;;;5.60;99.90;;;;;;4944317;28;20047;-82
2023/03/29 02:39:14;;;;;;;15.75;9.20;;;5.60;99.90;;;;;;4962630;28;20046;-82
2023/03/29 02:41:48;;;;;;;16.77;10.27;;;5.60;99.90;;;;;;4962673;28;20030;-82
2023/03/29 02:44:31;;;;;;;14.75;9.77;;;5.60;99.90;;;;;;4965587;28;20046;-82
2023/03/29 02:47:19;;;;;;;16.33;11.50;;;5.70;99.90;;;;;;4962129;28;20035;-81
2023/03/29 02:49:46;;;;;;;17.65;11.25;;;5.60;99.90;;;;;;4959077;28;20383;-81
2023/03/29 02:52:17;;;;;;;18.42;11.30;;;5.60;99.90;;;;;;4977545;28;20049;-81
2023/03/29 02:54:54;;;;;;;19.17;11.82;;;5.60;99.90;;;;;;4984923;28;20498;-82
2023/03/29 02:57:30;;;;;;;18.27;11.98;;;5.60;99.90;;;;;;4984999;28;20054;-81
2023/03/29 03:00:13;;;;;;;16.15;11.13;;;5.60;99.90;;;;;;4975005;28;20041;-82
2023/03/29 03:02:39;;;;;;;17.33;12.00;;;5.50;99.90;;;;;;4972567;28;20058;-82
2023/03/29 03:05:16;;;;;;;19.27;12.48;;;5.60;99.90;;;;;;5010795;28;20390;-82
2023/03/29 03:07:51;;;;;;;19.73;12.73;;;5.60;99.90;;;;;;4980683;28;20156;-82
2023/03/29 03:10:33;;;;;;;16.20;11.73;;;5.60;99.90;;;;;;4977931;28;20111;-81
2023/03/29 03:13:03;;;;;;;17.10;11.75;;;5.60;99.90;;;;;;4993174;28;20067;-81
2023/03/29 03:15:30;;;;;;;19.05;12.07;;;5.60;99.90;;;;;;5017020;28;20038;-81
2023/03/29 03:18:09;;;;;;;17.02;12.15;;;5.60;99.90;;;;;;5005332;28;20113;-82
2023/03/29 03:20:45;;;;;;;18.60;12.63;;;5.60;99.90;;;;;;4985899;28;20043;-83
2023/03/29 03:23:23;;;;;;;17.45;12.55;;;5.50;99.90;;;;;;5013067;28;20421;-82
2023/03/29 03:25:51;;;;;;;17.80;11.93;;;5.50;99.90;;;;;;4963882;28;20671;-83
2023/03/29 03:28:17;;;;;;;19.33;12.57;;;5.60;99.90;;;;;;5009798;28;20066;-82
2023/03/29 03:31:05;;;;;;;16.13;11.63;;;5.60;99.90;;;;;;4978350;28;20042;-81
2023/03/29 03:33:35;;;;;;;17.27;12.45;;;5.60;99.90;;;;;;4981622;28;20302;-82
2023/03/29 03:36:04;;;;;;;18.55;12.57;;;5.60;99.90;;;;;;4972666;28;20034;-83
2023/03/29 03:38:32;;;;;;;17.23;12.10;;;5.60;99.90;;;;;;4993233;28;20042;-82
2023/03/29 03:40:59;;;;;;;19.63;12.35;;;5.60;99.90;;;;;;5014184;28;20035;-81
2023/03/29 03:43:27;;;;;;;16.63;12.02;;;5.60;99.90;;;;;;4983189;28;20054;-81
2023/03/29 03:46:07;;;;;;;17.83;11.52;;;5.60;99.90;;;;;;4979183;28;20049;-83
2023/03/29 03:48:34;;;;;;;17.30;11.75;;;5.60;99.90;;;;;;4980906;28;20054;-82
2023/03/29 03:51:02;;;;;;;20.27;12.43;;;5.60;99.90;;;;;;5014200;28;20094;-81
2023/03/29 03:53:27;;;;;;;16.70;11.80;;;5.60;99.90;;;;;;4980405;28;20047;-82
2023/03/29 03:56:07;;;;;;;;;;;;;;;;;;;;;
2023/03/29 03:58:37;;;;;;;18.15;11.80;;;5.70;99.90;;;;;;4985180;28;20123;-82
2023/03/29 04:01:07;;;;;;;17.48;12.38;;;5.70;99.90;;;;;;4980631;28;20465;-83
2023/03/29 04:03:37;;;;;;;16.42;11.85;;;5.70;99.90;;;;;;4966168;28;20395;-82
2023/03/29 04:06:08;;;;;;;17.17;11.82;;;5.70;99.90;;;;;;4964790;28;20050;-82
2023/03/29 04:08:34;;;;;;;18.88;12.45;;;5.70;99.90;;;;;;4966813;28;20070;-82
2023/03/29 04:11:00;;;;;;;17.92;12.23;;;5.70;99.90;;;;;;4992307;28;20035;-81
2023/03/29 04:13:53;;;;;;;17.27;11.57;;;5.70;99.90;;;;;;4989976;28;20047;-82
2023/03/29 04:16:19;;;;;;;18.42;12.63;;;5.70;99.90;;;;;;4979239;28;20073;-82
2023/03/29 04:18:46;;;;;;;16.95;11.73;;;5.80;99.90;;;;;;4964536;28;20125;-81
2023/03/29 04:21:12;;;;;;;19.23;12.52;;;5.80;99.90;;;;;;4980615;28;20066;-82
2023/03/29 04:23:45;;;;;;;17.65;12.02;;;5.80;99.90;;;;;;4980369;28;20145;-82
2023/03/29 04:26:21;;;;;;;17.20;12.43;;;5.80;99.90;;;;;;4966378;28;20279;-80
2023/03/29 04:29:07;;;;;;;17.20;12.20;;;5.80;99.90;;;;;;4979264;28;20086;-81
2023/03/29 04:31:33;;;;;;;17.40;13.07;;;5.80;99.90;;;;;;4952593;28;20065;-81
2023/03/29 04:34:01;;;;;;;21.15;14.20;;;5.70;99.90;;;;;;4963863;28;20126;-82
2023/03/29 04:36:38;;;;;;;20.52;14.00;;;5.70;99.90;;;;;;4980761;28;20035;-80
2023/03/29 04:39:11;;;;;;;19.42;13.23;;;5.80;99.90;;;;;;4980741;28;20035;-82
2023/03/29 04:41:37;;;;;;;20.90;13.95;;;5.70;99.90;;;;;;4949467;28;20034;-82
2023/03/29 04:44:13;;;;;;;19.60;13.50;;;5.70;99.90;;;;;;4969922;28;20407;-82
2023/03/29 04:46:48;;;;;;;20.17;13.27;;;5.70;99.90;;;;;;4963225;28;20039;-81
2023/03/29 04:49:27;;;;;;;20.10;13.40;;;5.70;99.90;;;;;;4995367;28;20043;-81
2023/03/29 04:51:53;;;;;;;19.25;12.45;;;5.70;99.90;;;;;;4964484;28;20046;-80
2023/03/29 04:54:20;;;;;;;19.08;13.43;;;5.70;99.90;;;;;;4962776;28;20045;-81
2023/03/29 04:57:13;;;;;;;19.58;12.40;;;5.70;99.90;;;;;;4980528;28;20045;-82
2023/03/29 04:59:40;;;;;;;20.17;13.45;;;5.70;99.90;;;;;;4972572;28;20401;-81
2023/03/29 05:02:10;;;;;;;19.23;12.82;;;5.70;99.90;;;;;;4997722;28;20042;-81
2023/03/29 05:04:49;;;;;;;20.15;13.60;;;5.70;99.90;;;;;;4999759;28;20045;-81
2023/03/29 05:07:16;;;;;;;18.45;13.50;;;5.80;99.90;;;;;;5013132;28;20046;-81
2023/03/29 05:09:43;;;;;;;17.25;12.90;;;5.70;99.90;;;;;;4998781;28;20123;-81
2023/03/29 05:12:15;;;;;;;18.42;13.10;;;5.70;99.90;;;;;;4998913;28;20050;-82
2023/03/29 05:14:43;;;;;;;17.48;12.23;;;5.80;99.90;;;;;;4981535;28;20113;-80
2023/03/29 05:17:09;;;;;;;19.00;13.20;;;5.90;99.90;;;;;;4996417;28;20030;-85
2023/03/29 05:19:36;;;;;;;19.23;12.88;;;5.90;99.90;;;;;;4992147;28;20039;-82
2023/03/29 05:22:09;;;;;;;19.98;14.07;;;5.80;99.90;;;;;;4984100;28;20151;-82
2023/03/29 05:24:35;;;;;;;19.17;13.23;;;5.90;99.90;;;;;;4967553;28;20046;-83
2023/03/29 05:27:05;;;;;;;17.88;14.32;;;5.90;99.90;;;;;;4980944;28;20053;-84
2023/03/29 05:29:32;;;;;;;21.80;14.73;;;5.90;99.90;;;;;;4993205;28;20114;-84
2023/03/29 05:31:58;;;;;;;21.67;15.10;;;5.90;99.90;;;;;;4993189;28;20486;-85
2023/03/29 05:34:28;;;;;;;21.30;15.43;;;5.80;99.90;;;;;;5001071;28;20038;-82
2023/03/29 05:36:55;;;;;;;22.63;14.45;;;5.80;99.90;;;;;;5020617;28;20046;-81
2023/03/29 05:39:24;;;;;;;20.40;15.13;;;5.80;99.90;;;;;;4988528;28;20500;-81
2023/03/29 05:41:50;;;;;;;21.27;15.38;;;5.80;99.90;;;;;;4984481;28;20093;-80
2023/03/29 05:44:17;;;;;;;22.52;15.95;;;5.80;99.90;;;;;;4992944;28;20046;-79
2023/03/29 05:46:43;;;;;;;21.45;14.60;;;5.80;99.90;;;;;;4996434;28;20045;-81
2023/03/29 05:49:15;;;;;;;24.55;16.23;;;5.80;99.90;;;;;;4991996;28;20056;-83
2023/03/29 05:51:55;;;;;;;23.10;16.30;;;5.80;99.90;;;;;;5012648;28;20045;-82
2023/03/29 05:54:25;;;;;;;28.88;18.83;;;5.70;99.90;;;;;;4972500;28;20039;-82
2023/03/29 05:56:51;;;;;;;26.70;18.20;;;5.70;99.90;;;;;;4980898;28;20052;-81
2023/03/29 05:59:22;;;;;;;24.65;18.27;;;5.70;99.90;;;;;;4978481;28;20557;-83
2023/03/29 06:01:48;;;;;;;27.08;17.58;;;5.70;99.90;;;;;;4974140;28;20085;-83
2023/03/29 06:04:14;;;;;;;21.80;16.02;;;5.70;99.90;;;;;;4972435;28;20034;-80
2023/03/29 06:06:44;;;;;;;26.88;18.08;;;5.70;99.90;;;;;;4974154;28;20050;-80
2023/03/29 06:09:28;;;;;;;26.35;18.85;;;5.70;99.90;;;;;;4968665;28;20501;-78
2023/03/29 06:12:00;;;;;;;29.85;19.13;;;5.70;99.90;;;;;;4965876;28;20133;-78
2023/03/29 06:14:28;;;;;;;33.97;20.95;;;5.70;99.90;;;;;;4985295;28;20050;-80
2023/03/29 06:16:55;;;;;;;27.20;19.10;;;5.70;99.90;;;;;;4985451;28;20035;-80
2023/03/29 06:19:21;;;;;;;25.20;17.98;;;5.70;99.90;;;;;;4967515;28;20047;-80
2023/03/29 06:21:48;;;;;;;24.88;18.02;;;5.70;99.90;;;;;;4969894;28;20062;-80
2023/03/29 06:24:14;;;;;;;26.63;18.83;;;5.80;99.90;;;;;;4973419;28;20508;-80
2023/03/29 06:26:40;;;;;;;26.92;18.77;;;5.80;99.90;;;;;;4957047;28;20050;-80
2023/03/29 06:29:07;;;;;;;24.10;18.45;;;5.80;99.90;;;;;;4986384;28;20038;-81
2023/03/29 06:31:34;;;;;;;29.52;19.27;;;5.80;99.90;;;;;;4957702;28;20122;-80
2023/03/29 06:34:03;;;;;;;25.55;19.08;;;5.90;99.90;;;;;;4962958;28;20046;-82
2023/03/29 06:36:31;;;;;;;28.23;19.85;;;5.90;99.90;;;;;;4951411;28;20050;-75
2023/03/29 06:38:57;;;;;;;26.17;17.90;;;5.90;99.90;;;;;;4974796;28;20081;-75
2023/03/29 06:41:23;;;;;;;29.20;18.60;;;5.90;99.90;;;;;;4945557;28;20038;-76
2023/03/29 06:43:49;;;;;;;24.67;17.48;;;5.90;99.90;;;;;;4971398;28;20601;-75
2023/03/29 06:46:15;;;;;;;26.85;18.55;;;5.90;99.90;;;;;;4972119;28;20050;-75
2023/03/29 06:48:43;;;;;;;27.83;17.90;;;6.00;99.90;;;;;;4973060;28;20045;-76
2023/03/29 06:51:09;;;;;;;26.27;18.50;;;6.00;99.90;;;;;;4988575;28;20524;-75
2023/03/29 06:53:35;;;;;;;24.85;18.52;;;6.00;99.90;;;;;;4988662;28;20045;-75
2023/03/29 06:56:07;;;;;;;23.33;16.95;;;6.10;99.90;;;;;;4977238;28;20394;-82
2023/03/29 06:58:35;;;;;;;25.02;17.30;;;6.10;99.90;;;;;;4970339;28;20133;-86
2023/03/29 07:01:02;;;;;;;27.17;18.60;;;6.10;99.90;;;;;;4954209;28;20546;-86
2023/03/29 07:03:28;;;;;;;25.10;17.95;;;6.20;99.90;;;;;;4993080;28;20051;-88
2023/03/29 07:06:02;;;;;;;24.85;18.35;;;6.20;99.90;;;;;;4967415;28;20117;-86
2023/03/29 07:08:30;;;;;;;25.48;18.85;;;6.20;99.90;;;;;;5028062;28;20429;-86
2023/03/29 07:10:58;;;;;;;24.75;17.83;;;6.30;99.90;;;;;;4951839;28;20047;-86
2023/03/29 07:13:25;;;;;;;25.27;17.33;;;6.40;99.90;;;;;;4983532;28;20097;-87
2023/03/29 07:15:51;;;;;;;24.52;16.30;;;6.40;99.90;;;;;;4981296;28;20075;-85
2023/03/29 07:18:19;;;;;;;21.70;15.43;;;6.40;99.90;;;;;;4979886;28;20039;-86
2023/03/29 07:20:46;;;;;;;24.92;17.05;;;6.50;99.90;;;;;;4979421;28;20051;-86
2023/03/29 07:23:12;;;;;;;21.30;16.00;;;6.50;99.90;;;;;;4965914;28;20062;-85
2023/03/29 07:25:38;;;;;;;24.70;16.50;;;6.50;99.90;;;;;;4966707;28;20406;-85
2023/03/29 07:28:13;;;;;;;23.50;16.50;;;6.50;99.90;;;;;;4982429;28;20039;-87
2023/03/29 07:30:39;;;;;;;24.70;15.98;;;6.60;99.90;;;;;;4939948;29;20047;-86
2023/03/29 07:33:17;;;;;;;21.65;15.43;;;6.60;99.90;;;;;;4969232;28;20038;-84
2023/03/29 07:35:46;;;;;;;23.33;16.10;;;6.60;99.90;;;;;;5001525;28;20129;-85
2023/03/29 07:38:15;;;;;;;20.00;13.88;;;6.60;99.90;;;;;;4956695;28;20066;-87
2023/03/29 07:40:42;;;;;;;20.55;14.65;;;6.60;99.90;;;;;;4991638;28;20041;-85
2023/03/29 07:43:11;;;;;;;19.75;13.63;;;6.60;99.90;;;;;;4986332;28;20035;-86
2023/03/29 07:45:39;;;;;;;17.17;12.75;;;6.70;99.90;;;;;;4961001;28;20039;-86
2023/03/29 07:48:08;;;;;;;20.75;15.15;;;6.70;99.90;;;;;;4982421;28;20535;-87
2023/03/29 07:50:45;;;;;;;22.45;14.80;;;6.70;99.90;;;;;;4965514;28;20043;-86
2023/03/29 07:53:16;;;;;;;20.77;14.20;;;6.90;99.90;;;;;;4964673;28;20039;-86
2023/03/29 07:55:45;;;;;;;22.33;14.73;;;6.80;99.90;;;;;;4968272;28;20062;-88
2023/03/29 07:58:36;;;;;;;20.75;14.15;;;6.90;99.90;;;;;;4967568;28;20046;-86
2023/03/29 08:01:04;;;;;;;18.33;13.52;;;6.90;99.90;;;;;;4972691;28;20490;-85
2023/03/29 08:03:40;;;;;;;18.77;12.85;;;6.90;99.90;;;;;;4966588;28;20039;-85
2023/03/29 08:06:09;;;;;;;18.88;12.75;;;6.90;99.90;;;;;;4947224;28;20057;-85
2023/03/29 08:08:35;;;;;;;17.23;11.75;;;7.00;99.90;;;;;;4989029;28;20045;-85
2023/03/29 08:11:08;;;;;;;16.48;12.52;;;7.00;99.90;;;;;;4983777;28;20053;-84
2023/03/29 08:13:41;;;;;;;16.92;11.88;;;7.00;99.90;;;;;;4952935;29;20094;-86
2023/03/29 08:16:12;;;;;;;15.75;12.02;;;7.10;99.90;;;;;;4965609;28;20042;-86
2023/03/29 08:18:38;;;;;;;18.48;12.27;;;7.10;99.90;;;;;;4955568;29;20039;-86
2023/03/29 08:21:06;;;;;;;16.80;11.20;;;7.20;99.90;;;;;;4993953;28;20034;-85
2023/03/29 08:23:33;;;;;;;18.33;11.95;;;7.20;99.90;;;;;;4948222;28;20054;-85
2023/03/29 08:26:02;;;;;;;15.15;11.20;;;7.30;99.90;;;;;;4998640;28;20035;-86
2023/03/29 08:28:35;;;;;;;15.00;10.85;;;7.30;99.90;;;;;;4965876;28;20051;-86
2023/03/29 08:31:01;;;;;;;17.27;11.73;;;7.30;99.90;;;;;;4962883;28;20053;-86
2023/03/29 08:33:27;;;;;;;16.33;10.55;;;7.40;99.90;;;;;;4948286;28;20133;-85
2023/03/29 08:35:57;;;;;;;18.25;11.38;;;7.40;99.90;;;;;;4965479;28;20072;-85
2023/03/29 08:38:27;;;;;;;15.35;10.88;;;7.40;99.90;;;;;;4963565;28;20050;-84
2023/03/29 08:40:54;;;;;;;14.18;10.35;;;7.40;99.90;;;;;;4953288;28;20053;-86
2023/03/29 08:43:24;;;;;;;14.98;9.93;;;7.50;99.90;;;;;;4960688;28;20130;-86
2023/03/29 08:46:10;;;;;;;13.80;10.20;;;7.50;99.90;;;;;;4980717;28;20046;-86
2023/03/29 08:48:45;;;;;;;16.85;10.52;;;7.60;99.90;;;;;;4994224;28;20043;-85
2023/03/29 08:51:23;;;;;;;13.93;9.48;;;7.80;99.90;;;;;;4960798;28;20042;-86
2023/03/29 08:54:01;;;;;;;15.43;9.98;;;7.90;99.90;;;;;;4973371;28;20047;-86
2023/03/29 08:56:29;;;;;;;14.00;10.10;;;8.10;99.90;;;;;;4991199;28;20590;-86
2023/03/29 08:58:57;;;;;;;13.25;9.38;;;8.20;99.90;;;;;;4986016;28;20438;-85
2023/03/29 09:01:28;;;;;;;14.25;9.15;;;8.30;99.90;;;;;;4964269;28;20055;-85
2023/03/29 09:04:02;;;;;;;14.20;9.75;;;8.30;99.90;;;;;;4948610;28;20556;-87
2023/03/29 09:06:29;;;;;;;13.82;9.48;;;8.40;99.90;;;;;;4994938;28;20458;-85
2023/03/29 09:08:56;;;;;;;14.48;9.32;;;8.60;99.90;;;;;;4982348;28;20121;-86
2023/03/29 09:11:41;;;;;;;12.75;9.10;;;8.60;99.90;;;;;;4980037;28;20079;-86
2023/03/29 09:14:36;;;;;;;12.40;8.98;;;8.50;99.90;;;;;;4980117;28;20049;-86
2023/03/29 09:17:43;;;;;;;14.27;8.98;;;8.80;99.90;;;;;;4993106;28;20082;-85
2023/03/29 09:20:55;;;;;;;12.32;8.38;;;8.90;99.90;;;;;;5020524;28;20053;-87
2023/03/29 09:23:45;;;;;;;15.30;9.50;;;9.10;99.90;;;;;;4949938;28;20097;-86
2023/03/29 09:26:37;;;;;;;14.80;8.23;;;9.40;99.90;;;;;;4978367;28;20042;-87
2023/03/29 09:29:08;;;;;;;11.80;8.43;;;9.60;99.90;;;;;;4965739;28;20105;-86
2023/03/29 09:31:42;;;;;;;13.90;8.68;;;9.80;99.90;;;;;;4968015;28;20042;-85
2023/03/29 09:34:19;;;;;;;13.32;8.32;;;10.00;99.90;;;;;;5009109;28;20066;-86
2023/03/29 09:37:02;;;;;;;12.68;8.32;;;10.00;99.90;;;;;;4946031;28;20070;-86
2023/03/29 09:39:28;;;;;;;12.38;7.88;;;10.10;99.90;;;;;;4946047;28;20045;-87
2023/03/29 09:42:03;;;;;;;14.48;8.50;;;10.20;99.90;;;;;;4992634;28;20121;-86
2023/03/29 09:44:48;;;;;;;14.02;7.50;;;10.30;99.90;;;;;;4960182;28;20047;-85
2023/03/29 09:47:18;;;;;;;14.88;7.60;;;10.30;99.90;;;;;;4958247;28;20043;-85
2023/03/29 09:49:48;;;;;;;13.40;7.95;;;10.20;99.90;;;;;;4977445;28;20046;-87
2023/03/29 09:52:17;;;;;;;12.32;7.70;;;10.20;99.90;;;;;;4992079;28;20061;-86
2023/03/29 09:54:43;;;;;;;13.98;8.45;;;10.20;99.90;;;;;;4993344;28;20070;-87
2023/03/29 09:57:12;;;;;;;12.02;7.82;;;10.20;99.90;;;;;;4960790;28;20088;-87
2023/03/29 09:59:41;;;;;;;12.55;7.53;;;10.30;99.90;;;;;;5012443;28;20049;-87
2023/03/29 10:02:12;;;;;;;14.80;8.35;;;10.30;99.90;;;;;;4979458;28;20081;-85
2023/03/29 10:04:43;;;;;;;13.43;7.87;;;10.50;99.90;;;;;;5028669;28;20095;-86
2023/03/29 10:07:17;;;;;;;14.85;8.38;;;10.60;99.90;;;;;;5012046;28;20046;-85
2023/03/29 10:09:44;;;;;;;12.63;8.23;;;10.70;99.90;;;;;;4980193;28;20042;-85
2023/03/29 10:12:11;;;;;;;15.30;8.10;;;10.80;99.90;;;;;;4950135;28;20046;-86
2023/03/29 10:14:43;;;;;;;10.93;7.40;;;10.80;99.90;;;;;;4979720;28;20073;-86
2023/03/29 10:17:21;;;;;;;11.82;8.43;;;10.90;99.90;;;;;;4993609;28;20042;-86
2023/03/29 10:19:54;;;;;;;13.27;8.35;;;11.00;99.90;;;;;;4995928;28;20072;-87
2023/03/29 10:22:36;;;;;;;14.98;8.32;;;11.00;99.90;;;;;;4994725;28;20117;-86
2023/03/29 10:25:03;;;;;;;14.98;8.82;;;11.00;99.90;;;;;;5028041;28;20041;-87
2023/03/29 10:27:33;;;;;;;14.85;8.45;;;11.00;99.90;;;;;;4994916;28;20038;-88
2023/03/29 10:30:07;;;;;;;13.23;9.52;;;11.00;99.90;;;;;;4978956;28;20034;-87
2023/03/29 10:32:35;;;;;;;12.55;8.57;;;11.10;99.90;;;;;;4978815;28;20102;-86
2023/03/29 10:35:23;;;;;;;13.05;9.32;;;11.10;99.90;;;;;;4995861;28;20073;-87
2023/03/29 10:37:52;;;;;;;12.65;8.98;;;11.20;99.90;;;;;;4994436;28;20132;-87
2023/03/29 10:40:33;;;;;;;13.50;8.80;;;11.20;99.90;;;;;;4979679;28;20054;-86
2023/03/29 10:43:31;;;;;;;16.05;9.35;;;11.30;99.90;;;;;;4995080;28;20046;-86
2023/03/29 10:46:12;;;;;;;13.15;9.45;;;11.30;99.90;;;;;;5028448;28;20465;-87
2023/03/29 10:48:38;;;;;;;14.10;9.52;;;11.40;99.90;;;;;;4992141;28;20085;-87
2023/03/29 10:51:06;;;;;;;12.77;9.23;;;11.40;99.90;;;;;;4978950;28;20038;-87
2023/03/29 10:53:35;;;;;;;13.70;9.73;;;11.40;99.90;;;;;;4979179;28;20105;-87
2023/03/29 10:56:21;;;;;;;16.08;9.90;;;11.50;99.90;;;;;;4994566;28;20038;-87
2023/03/29 11:03:31;;;;;;;14.27;10.27;;;11.70;99.90;;;;;;4989507;28;20049;-87
2023/03/29 11:06:13;;;;;;;14.50;10.10;;;12.00;99.90;;;;;;4974258;28;20053;-86
2023/03/29 11:09:03;;;;;;;14.57;9.32;;;12.10;99.90;;;;;;4981043;28;20050;-87
2023/03/29 11:11:57;;;;;;;13.27;9.40;;;12.10;99.90;;;;;;4972570;28;20039;-87
2023/03/29 11:14:45;;;;;;;12.05;9.27;;;12.20;99.90;;;;;;4969855;28;20043;-87
2023/03/29 11:17:32;;;;;;;13.52;9.45;;;12.20;99.90;;;;;;4962423;28;20043;-88
2023/03/29 11:20:07;;;;;;;15.82;9.50;;;12.30;99.90;;;;;;4974474;28;20042;-87
2023/03/29 11:22:54;;;;;;;13.35;9.10;;;12.30;99.90;;;;;;4981731;28;20053;-87
2023/03/29 11:25:33;;;;;;;12.55;8.68;;;12.40;99.90;;;;;;4994852;28;20062;-87
2023/03/29 11:28:23;;;;;;;12.88;8.95;;;12.30;99.90;;;;;;4991238;28;20065;-87
2023/03/29 11:31:08;;;;;;;12.63;8.77;;;12.40;99.90;;;;;;4990628;28;20046;-87
2023/03/29 11:34:06;;;;;;;11.63;8.65;;;12.60;99.90;;;;;;4973831;28;20031;-87
2023/03/29 11:36:57;;;;;;;12.15;8.25;;;12.60;99.90;;;;;;4989515;28;20112;-87
2023/03/29 11:40:09;;;;;;;13.48;8.52;;;12.80;99.90;;;;;;4974128;28;20042;-87
2023/03/29 11:42:42;;;;;;;14.90;8.50;;;12.90;99.90;;;;;;4931785;28;20051;-87
2023/03/29 11:45:19;;;;;;;11.27;8.20;;;12.90;99.90;;;;;;5010928;28;20564;-87
2023/03/29 11:47:46;;;;;;;12.00;7.47;;;12.90;99.90;;;;;;4953227;28;20489;-87
2023/03/29 11:50:23;;;;;;;13.13;7.75;;;12.90;99.90;;;;;;4995611;28;20047;-87
2023/03/29 11:52:57;;;;;;;11.90;8.52;;;13.00;99.90;;;;;;4993959;28;20413;-87
2023/03/29 11:55:25;;;;;;;11.02;7.93;;;13.10;99.90;;;;;;4962235;28;20497;-87
2023/03/29 11:58:13;;;;;;;10.57;7.88;;;13.30;99.90;;;;;;4993905;28;20041;-87
2023/03/29 12:00:47;;;;;;;11.57;7.47;;;13.40;99.90;;;;;;4993683;28;20039;-86
2023/03/29 12:11:20;;;;;;;12.05;7.82;;;13.50;99.90;;;;;;5004686;28;20084;-87
2023/03/29 12:13:55;;;;;;;11.25;7.88;;;13.80;99.90;;;;;;5000649;28;20050;-87
2023/03/29 12:16:34;;;;;;;;;;;13.90;99.90;;;;;;5003482;28;20049;-87
2023/03/29 12:19:30;;;;;;;11.70;7.38;;;13.90;99.90;;;;;;5000485;28;19928;-86
2023/03/29 12:21:58;;;;;;;9.73;7.20;;;13.90;99.90;;;;;;5002872;28;20133;-86
2023/03/29 12:24:31;;;;;;;11.13;7.30;;;13.90;99.90;;;;;;5014722;28;20075;-89
2023/03/29 12:27:03;;;;;;;9.63;7.10;;;14.00;99.90;;;;;;5000890;28;20133;-88
2023/03/29 12:30:00;;;;;;;10.10;7.10;;;14.10;99.90;;;;;;4999824;28;20037;-86
2023/03/29 12:33:10;;;;;;;10.25;6.95;;;14.20;99.90;;;;;;4999656;28;20096;-87
2023/03/29 12:35:55;;;;;;;12.48;7.18;;;14.30;99.90;;;;;;4976027;28;20058;-87
2023/03/29 12:38:23;;;;;;;12.05;7.40;;;14.40;99.90;;;;;;4999118;28;20116;-86
2023/03/29 12:41:00;;;;;;;12.07;7.30;;;14.40;99.90;;;;;;4990813;28;20157;-86
2023/03/29 12:43:31;;;;;;;11.98;7.10;;;14.50;99.90;;;;;;4999638;28;20045;-87
2023/03/29 12:46:10;;;;;;;12.37;7.37;;;14.40;99.90;;;;;;5000340;28;20073;-87
2023/03/29 12:48:39;;;;;;;10.90;7.05;;;14.40;99.90;;;;;;4995822;28;20068;-87
2023/03/29 12:51:11;;;;;;;11.18;7.65;;;14.30;99.90;;;;;;5000379;28;20069;-87
2023/03/29 12:53:44;;;;;;;12.15;7.55;;;14.30;99.90;;;;;;4998150;28;20046;-86
2023/03/29 12:56:18;;;;;;;13.77;7.70;;;14.30;99.90;;;;;;5014729;28;20030;-87
2023/03/29 12:59:08;;;;;;;11.95;7.55;;;14.20;99.90;;;;;;4982926;28;20038;-88
2023/03/29 13:01:36;;;;;;;12.00;7.75;;;14.20;99.90;;;;;;5012370;28;20076;-87
2023/03/29 13:04:21;;;;;;;11.00;7.65;;;14.10;99.90;;;;;;5026390;28;20540;-87
2023/03/29 13:07:02;;;;;;;12.35;7.75;;;14.00;99.90;;;;;;4983160;28;20045;-88
2023/03/29 13:09:34;;;;;;;13.43;8.27;;;14.10;99.90;;;;;;4999363;28;20046;-87
2023/03/29 14:01:53;;;;;;;12.00;8.98;;;13.90;99.90;;;;;;4990503;28;20093;-86
2023/03/29 14:04:44;;;;;;;12.73;9.38;;;13.90;99.90;;;;;;4989148;28;20038;-86
2023/03/29 14:07:13;;;;;;;12.15;9.20;;;14.00;99.90;;;;;;5007600;28;20041;-89
2023/03/29 14:09:44;;;;;;;12.73;8.82;;;14.00;99.90;;;;;;4999377;28;20093;-88
2023/03/29 14:12:14;;;;;;;11.88;9.30;;;14.00;99.90;;;;;;4976010;28;20038;-88
2023/03/29 14:14:44;;;;;;;12.57;9.50;;;14.10;99.90;;;;;;4973340;28;20546;-93
2023/03/29 14:17:21;;;;;;;14.32;9.27;;;14.10;99.90;;;;;;4976339;28;20030;-89
2023/03/29 14:19:48;;;;;;;14.88;9.80;;;14.30;99.90;;;;;;4960391;28;20034;-89
2023/03/29 14:22:17;;;;;;;12.50;9.18;;;14.30;99.90;;;;;;4980755;28;20080;-87
2023/03/29 14:24:55;;;;;;;12.80;9.27;;;14.20;99.90;;;;;;5009146;28;20046;-87